Terminal Aerodrome Forecast
Issued by NWS

Home | Current Version | Previous Version | Text Only | Print | Product List | Glossary On
Versions: 1 2 3 4 5 6 7 8 9 10 11 12 13 14 15 16 17 18 19 20 21 22 23 24 25 26 27 28 29 30 31 32 33 34 35 36 37 38 39 40 41 42 43 44
000
FTAK31 PANC 231305 AAA
TAFAEN
TAF AMD
PAEN 231305Z 2313/2412 36007KT P6SM FEW006 SCT050 OVC100
     FM232200 03012KT 3SM -SHSN BKN020 OVC030
     FM240400 03012G18KT P6SM VCSH SCT030 BKN050
     FM240700 02006KT P6SM VCSH OVC050=

USA.gov is the U.S. government's official web portal to all federal, state and local government web resources and services.